Time;durP1;ratioP1;P1;durP2;ratioP2;P2;SDS_P1;SDS_P2;PMS_P1;PMS_P2;Temp;Humidity;BMP_temperature;BMP_pressure;BME280_temperature;BME280_humidity;BME280_pressure;Samples;Min_cycle;Max_cycle;Signal;HPM_P1;HPM_P2
2022/02/08 00:00:10;;;;;;;11.90;7.80;;;;;;;;;;4404211;32;20100;-63
2022/02/08 00:02:42;;;;;;;12.80;8.10;;;;;;;;;;4392305;32;20066;-63
2022/02/08 00:05:11;;;;;;;13.62;8.30;;;;;;;;;;4379358;32;20113;-63
2022/02/08 00:07:38;;;;;;;11.75;7.25;;;;;;;;;;4404146;32;20097;-64
2022/02/08 00:10:05;;;;;;;12.55;7.70;;;;;;;;;;4404245;32;20073;-64
2022/02/08 00:12:32;;;;;;;11.12;7.70;;;;;;;;;;4404733;32;20093;-64
2022/02/08 00:14:59;;;;;;;13.52;7.03;;;;;;;;;;4404463;32;20500;-63
2022/02/08 00:17:25;;;;;;;13.38;7.85;;;;;;;;;;4404075;32;20097;-64
2022/02/08 00:19:52;;;;;;;13.80;8.20;;;;;;;;;;4393088;32;20499;-63
2022/02/08 00:22:19;;;;;;;12.05;7.53;;;;;;;;;;4393180;32;20521;-63
2022/02/08 00:24:45;;;;;;;12.80;7.72;;;;;;;;;;4404480;32;20519;-64
2022/02/08 00:27:12;;;;;;;13.57;7.45;;;;;;;;;;4391513;32;20084;-64
2022/02/08 00:29:39;;;;;;;11.30;7.45;;;;;;;;;;4403935;32;20074;-64
2022/02/08 00:32:06;;;;;;;12.15;7.53;;;;;;;;;;4390833;32;20503;-63
2022/02/08 00:34:33;;;;;;;13.75;7.65;;;;;;;;;;4391481;32;20089;-62
2022/02/08 00:36:59;;;;;;;12.93;7.43;;;;;;;;;;4393163;32;20104;-63
2022/02/08 00:39:29;;;;;;;11.85;7.28;;;;;;;;;;4392807;32;20085;-64
2022/02/08 00:42:03;;;;;;;13.60;7.32;;;;;;;;;;4392069;32;20086;-63
2022/02/08 00:44:37;;;;;;;11.45;7.00;;;;;;;;;;4391433;32;20183;-62
2022/02/08 00:49:42;;;;;;;12.63;7.12;;;;;;;;;;4403451;32;20089;-64
2022/02/08 00:52:14;;;;;;;10.30;6.45;;;;;;;;;;4391157;32;20161;-63
2022/02/08 00:54:45;;;;;;;11.68;7.05;;;;;;;;;;4392513;32;20161;-63
2022/02/08 00:57:13;;;;;;;10.82;6.45;;;;;;;;;;4391070;32;20150;-62
2022/02/08 00:59:40;;;;;;;11.05;6.75;;;;;;;;;;4403834;32;20078;-63
2022/02/08 01:02:07;;;;;;;12.23;6.90;;;;;;;;;;4391929;32;20087;-62
2022/02/08 01:04:34;;;;;;;11.98;6.75;;;;;;;;;;4391752;32;20128;-62
2022/02/08 01:07:03;;;;;;;11.88;6.97;;;;;;;;;;4391414;32;20513;-64
2022/02/08 01:09:53;;;;;;;10.93;6.45;;;;;;;;;;4403561;32;20082;-63
2022/02/08 01:12:21;;;;;;;9.35;6.37;;;;;;;;;;4391757;32;20534;-64
2022/02/08 01:14:50;;;;;;;11.25;7.05;;;;;;;;;;4390927;32;20533;-64
2022/02/08 01:17:18;;;;;;;8.80;6.03;;;;;;;;;;4391023;32;20098;-63
2022/02/08 01:19:55;;;;;;;10.07;7.00;;;;;;;;;;4378077;32;20097;-63
2022/02/08 01:22:22;;;;;;;9.20;5.93;;;;;;;;;;4402862;32;20138;-63
2022/02/08 01:24:50;;;;;;;10.18;6.37;;;;;;;;;;4390837;32;20082;-63
2022/02/08 01:27:22;;;;;;;9.57;6.03;;;;;;;;;;4403210;32;20556;-63
2022/02/08 01:32:36;;;;;;;10.05;6.25;;;;;;;;;;4390682;32;20173;-64
2022/02/08 01:35:25;;;;;;;10.38;6.53;;;;;;;;;;4390967;32;20081;-63
2022/02/08 01:38:07;;;;;;;10.88;6.68;;;;;;;;;;4401351;32;20080;-63
2022/02/08 01:41:02;;;;;;;8.57;5.75;;;;;;;;;;4390387;32;20159;-63
2022/02/08 01:44:12;;;;;;;10.23;6.40;;;;;;;;;;4389809;32;20143;-67
2022/02/08 01:46:26;;;;;;;10.63;6.43;;;;;;;;;;4382111;32;20156;-63
2022/02/08 01:48:59;;;;;;;9.60;6.43;;;;;;;;;;4390769;32;20082;-64
2022/02/08 01:51:26;;;;;;;9.88;6.30;;;;;;;;;;4392018;32;20076;-63
2022/02/08 01:53:52;;;;;;;10.57;6.55;;;;;;;;;;4403221;32;20074;-64
2022/02/08 01:56:19;;;;;;;10.50;6.47;;;;;;;;;;4390258;32;20077;-63
2022/02/08 01:58:46;;;;;;;10.23;6.35;;;;;;;;;;4403255;32;20091;-64
2022/02/08 02:01:12;;;;;;;10.52;6.40;;;;;;;;;;4402710;32;20070;-63
2022/02/08 02:03:42;;;;;;;11.48;6.95;;;;;;;;;;4391671;32;20066;-63
2022/02/08 02:06:09;;;;;;;12.55;6.97;;;;;;;;;;4390259;32;20085;-62
2022/02/08 02:08:36;;;;;;;7.53;5.12;;;;;;;;;;4389963;32;20174;-62
2022/02/08 02:11:03;;;;;;;9.02;5.62;;;;;;;;;;4391737;32;20150;-63
2022/02/08 02:13:50;;;;;;;9.55;6.30;;;;;;;;;;4389959;32;20093;-63
2022/02/08 02:16:23;;;;;;;10.15;6.80;;;;;;;;;;4389801;32;20468;-64
2022/02/08 02:18:50;;;;;;;9.07;6.18;;;;;;;;;;4402134;32;20077;-63
2022/02/08 02:21:17;;;;;;;9.38;5.78;;;;;;;;;;4391322;32;20078;-63
2022/02/08 02:23:51;;;;;;;9.20;5.90;;;;;;;;;;4390062;32;20145;-62
2022/02/08 02:26:17;;;;;;;9.73;5.70;;;;;;;;;;4389710;32;20104;-64
2022/02/08 02:28:44;;;;;;;9.00;5.97;;;;;;;;;;4389557;32;20074;-63
2022/02/08 02:31:11;;;;;;;10.57;6.25;;;;;;;;;;4389960;32;20093;-62
2022/02/08 02:33:38;;;;;;;8.45;5.35;;;;;;;;;;4389793;32;20524;-63
2022/02/08 02:36:07;;;;;;;9.63;5.90;;;;;;;;;;4391303;32;20492;-62
2022/02/08 02:38:33;;;;;;;9.82;5.78;;;;;;;;;;4389772;32;20085;-63
2022/02/08 02:41:00;;;;;;;8.48;5.18;;;;;;;;;;4389914;32;20074;-63
2022/02/08 02:43:30;;;;;;;8.77;6.22;;;;;;;;;;4402320;32;20073;-64
2022/02/08 02:46:00;;;;;;;8.48;5.40;;;;;;;;;;4391007;32;20081;-63
2022/02/08 02:48:27;;;;;;;7.43;4.68;;;;;;;;;;4389711;32;20153;-63
2022/02/08 02:50:54;;;;;;;7.70;5.10;;;;;;;;;;4389586;32;20086;-63
2022/02/08 02:53:26;;;;;;;5.93;4.15;;;;;;;;;;4389874;32;20054;-63
2022/02/08 02:55:53;;;;;;;7.78;4.85;;;;;;;;;;4403579;32;20162;-63
2022/02/08 02:58:23;;;;;;;7.35;4.62;;;;;;;;;;4394159;32;20081;-63
2022/02/08 03:01:02;;;;;;;6.87;4.28;;;;;;;;;;4380513;32;20093;-63
2022/02/08 03:03:44;;;;;;;6.50;3.95;;;;;;;;;;4393026;32;20169;-65
2022/02/08 03:19:41;;;;;;;6.90;4.28;;;;;;;;;;4403900;32;20089;-62
2022/02/08 03:22:08;;;;;;;7.45;4.50;;;;;;;;;;4394349;32;20504;-63
2022/02/08 03:24:35;;;;;;;7.40;4.53;;;;;;;;;;4394263;32;20561;-63
2022/02/08 03:27:02;;;;;;;7.35;4.70;;;;;;;;;;4394097;32;20074;-63
2022/02/08 03:29:29;;;;;;;7.12;4.07;;;;;;;;;;4380344;32;20085;-64
2022/02/08 03:31:55;;;;;;;6.22;4.10;;;;;;;;;;4392930;32;20516;-63
2022/02/08 03:34:22;;;;;;;6.53;4.35;;;;;;;;;;4394713;32;20505;-63
2022/02/08 03:36:50;;;;;;;5.62;3.87;;;;;;;;;;4400691;32;20500;-63
2022/02/08 03:39:21;;;;;;;6.43;4.25;;;;;;;;;;4401738;32;20074;-63
2022/02/08 03:41:53;;;;;;;7.47;4.65;;;;;;;;;;4400384;32;20085;-64
2022/02/08 03:44:29;;;;;;;8.15;4.95;;;;;;;;;;4400242;32;20066;-64
2022/02/08 03:46:56;;;;;;;7.03;4.75;;;;;;;;;;4396453;32;20077;-64
2022/02/08 03:49:23;;;;;;;7.90;5.25;;;;;;;;;;4406682;32;20063;-63
2022/02/08 03:51:58;;;;;;;8.10;5.47;;;;;;;;;;4392130;32;20073;-63
2022/02/08 03:54:24;;;;;;;9.77;6.05;;;;;;;;;;4392434;32;20072;-64
2022/02/08 03:56:51;;;;;;;8.50;5.68;;;;;;;;;;4405137;32;20153;-63
2022/02/08 03:59:18;;;;;;;10.55;6.37;;;;;;;;;;4404397;32;20088;-64
2022/02/08 04:07:15;;;;;;;6.05;4.03;;;;;;;;;;4392074;32;20085;-63
2022/02/08 04:09:43;;;;;;;7.33;4.33;;;;;;;;;;4404434;32;20170;-64
2022/02/08 04:12:38;;;;;;;6.65;4.10;;;;;;;;;;4379295;32;20531;-63
2022/02/08 04:39:20;;;;;;;4.70;3.20;;;;;;;;;;4391787;32;20089;-64
2022/02/08 04:48:01;;;;;;;6.37;3.55;;;;;;;;;;4345413;33;20174;-63
2022/02/08 04:50:15;;;;;;;5.70;3.30;;;;;;;;;;4380962;32;20082;-62
2022/02/08 04:52:42;;;;;;;5.43;3.45;;;;;;;;;;4378791;32;20468;-62
2022/02/08 04:58:08;;;;;;;5.68;3.08;;;;;;;;;;4392648;32;20066;-63
2022/02/08 05:00:42;;;;;;;5.60;3.08;;;;;;;;;;4391206;32;20178;-63
2022/02/08 05:36:48;;;;;;;6.03;4.03;;;;;;;;;;4401744;32;20155;-66
2022/02/08 05:42:07;;;;;;;5.72;3.35;;;;;;;;;;4390681;32;20162;-63
2022/02/08 05:44:40;;;;;;;6.22;3.67;;;;;;;;;;4390575;32;20106;-64
2022/02/08 05:47:09;;;;;;;6.22;3.65;;;;;;;;;;4402958;32;20082;-62
2022/02/08 05:49:45;;;;;;;6.97;4.20;;;;;;;;;;4403006;32;20096;-63
2022/02/08 05:53:26;;;;;;;5.10;3.13;;;;;;;;;;3833912;37;20050;-63
2022/02/08 05:55:35;;;;;;;6.15;3.72;;;;;;;;;;4392378;32;20173;-62
2022/02/08 05:58:03;;;;;;;5.65;3.42;;;;;;;;;;4404938;32;20069;-63
2022/02/08 06:00:30;;;;;;;6.50;3.55;;;;;;;;;;4378852;32;20504;-63
2022/02/08 06:03:02;;;;;;;8.07;4.15;;;;;;;;;;4391976;32;20065;-63
2022/02/08 06:05:29;;;;;;;6.80;4.00;;;;;;;;;;4378445;32;20150;-63
2022/02/08 06:07:56;;;;;;;6.62;3.97;;;;;;;;;;4390662;32;20077;-63
2022/02/08 06:10:23;;;;;;;6.22;3.75;;;;;;;;;;4377940;32;20112;-66
2022/02/08 06:12:52;;;;;;;7.03;4.00;;;;;;;;;;4377976;32;20077;-63
2022/02/08 06:15:22;;;;;;;6.62;4.05;;;;;;;;;;4390405;32;20088;-62
2022/02/08 06:17:52;;;;;;;5.45;3.37;;;;;;;;;;4377787;32;20103;-63
2022/02/08 06:20:19;;;;;;;5.78;3.55;;;;;;;;;;4377489;32;20444;-62
2022/02/08 06:22:45;;;;;;;5.93;3.30;;;;;;;;;;4390298;32;20081;-63
2022/02/08 06:25:15;;;;;;;5.25;3.12;;;;;;;;;;4389890;32;20163;-62
2022/02/08 06:27:43;;;;;;;5.00;3.05;;;;;;;;;;4378578;32;20070;-63
2022/02/08 06:30:11;;;;;;;6.35;3.53;;;;;;;;;;4377424;32;20083;-62
2022/02/08 06:32:38;;;;;;;5.40;3.50;;;;;;;;;;4403903;32;20080;-62
2022/02/08 06:35:11;;;;;;;5.70;3.10;;;;;;;;;;4404596;32;20157;-62
2022/02/08 06:37:39;;;;;;;5.57;2.87;;;;;;;;;;4404135;32;20169;-61
2022/02/08 06:40:08;;;;;;;5.87;3.58;;;;;;;;;;4390541;32;20165;-62
2022/02/08 06:42:34;;;;;;;5.22;3.25;;;;;;;;;;4390044;32;20162;-62
2022/02/08 06:45:03;;;;;;;5.40;3.45;;;;;;;;;;4404121;32;20089;-65
2022/02/08 06:47:32;;;;;;;4.95;3.35;;;;;;;;;;4404026;32;20096;-62
2022/02/08 06:50:13;;;;;;;5.37;3.20;;;;;;;;;;3858426;37;20058;-63
2022/02/08 06:52:40;;;;;;;4.35;2.92;;;;;;;;;;4395035;32;20187;-61
2022/02/08 06:55:08;;;;;;;4.43;2.67;;;;;;;;;;4421907;32;20222;-62
2022/02/08 06:57:49;;;;;;;5.65;3.42;;;;;;;;;;4421808;32;20065;-61
2022/02/08 07:00:23;;;;;;;6.55;3.55;;;;;;;;;;4395298;32;20585;-61
2022/02/08 07:02:50;;;;;;;5.07;3.17;;;;;;;;;;4426918;32;20520;-62
2022/02/08 07:05:18;;;;;;;6.32;3.70;;;;;;;;;;4424603;32;20095;-62
2022/02/08 07:07:45;;;;;;;6.03;3.35;;;;;;;;;;4418943;32;20101;-60
2022/02/08 07:10:12;;;;;;;5.15;3.28;;;;;;;;;;4420167;32;20153;-61
2022/02/08 07:12:40;;;;;;;6.03;3.62;;;;;;;;;;4392887;32;20154;-61
2022/02/08 07:15:12;;;;;;;5.80;3.53;;;;;;;;;;4419084;32;20108;-62
2022/02/08 07:17:39;;;;;;;5.65;3.85;;;;;;;;;;4418397;32;20104;-60
2022/02/08 07:20:07;;;;;;;5.35;3.40;;;;;;;;;;4419955;32;20081;-62
2022/02/08 07:22:33;;;;;;;5.03;3.20;;;;;;;;;;4418038;32;20161;-63
2022/02/08 07:25:00;;;;;;;5.53;3.35;;;;;;;;;;4419615;32;20081;-62
2022/02/08 07:27:28;;;;;;;6.00;3.70;;;;;;;;;;4404935;32;20070;-62
2022/02/08 07:29:55;;;;;;;5.53;3.47;;;;;;;;;;4417494;32;20088;-60
2022/02/08 07:32:37;;;;;;;5.47;3.45;;;;;;;;;;4417524;32;20063;-61
2022/02/08 07:35:23;;;;;;;5.07;3.25;;;;;;;;;;4417752;32;20081;-63
2022/02/08 07:37:57;;;;;;;5.50;3.37;;;;;;;;;;4417909;32;20074;-62
2022/02/08 07:40:41;;;;;;;6.47;3.65;;;;;;;;;;4418150;32;20081;-62
2022/02/08 07:43:08;;;;;;;5.68;3.42;;;;;;;;;;4418709;32;20173;-63
2022/02/08 07:45:35;;;;;;;6.05;3.55;;;;;;;;;;4404423;32;20487;-63
2022/02/08 07:48:01;;;;;;;5.18;3.15;;;;;;;;;;4392462;32;20084;-63
2022/02/08 07:50:28;;;;;;;5.68;3.28;;;;;;;;;;4392731;32;20073;-62
2022/02/08 07:52:55;;;;;;;5.45;3.53;;;;;;;;;;4404259;32;20072;-63
2022/02/08 07:55:23;;;;;;;5.78;3.78;;;;;;;;;;4417186;32;20084;-63
2022/02/08 07:57:50;;;;;;;6.10;3.80;;;;;;;;;;4418066;32;20085;-64
2022/02/08 08:00:17;;;;;;;6.35;3.90;;;;;;;;;;4413629;32;20058;-62
2022/02/08 08:02:44;;;;;;;6.75;3.80;;;;;;;;;;4408595;32;20078;-62
2022/02/08 08:05:11;;;;;;;5.43;3.65;;;;;;;;;;4382320;32;20095;-62
2022/02/08 08:07:38;;;;;;;6.10;3.75;;;;;;;;;;4406694;32;20219;-62
2022/02/08 08:10:06;;;;;;;5.95;3.85;;;;;;;;;;4394062;32;20089;-61
2022/02/08 08:12:35;;;;;;;6.10;3.78;;;;;;;;;;4394265;32;20081;-63
2022/02/08 08:15:11;;;;;;;6.75;4.12;;;;;;;;;;4381931;32;20513;-61
2022/02/08 08:17:58;;;;;;;6.70;4.03;;;;;;;;;;4407195;32;20088;-62
2022/02/08 08:20:24;;;;;;;7.32;4.47;;;;;;;;;;4406771;32;20184;-62
2022/02/08 08:22:51;;;;;;;7.70;4.18;;;;;;;;;;4381477;32;20086;-61
2022/02/08 08:25:18;;;;;;;6.47;4.00;;;;;;;;;;4408197;32;20108;-61
2022/02/08 08:27:44;;;;;;;7.53;4.00;;;;;;;;;;4406972;32;20092;-61
2022/02/08 08:30:12;;;;;;;6.37;4.03;;;;;;;;;;4408030;32;20512;-61
2022/02/08 08:32:40;;;;;;;6.68;4.30;;;;;;;;;;4408299;32;20077;-59
2022/02/08 08:35:11;;;;;;;7.43;4.78;;;;;;;;;;4394315;32;20070;-59
2022/02/08 08:37:43;;;;;;;6.12;4.00;;;;;;;;;;4393945;32;20169;-60
2022/02/08 08:40:21;;;;;;;6.80;4.25;;;;;;;;;;4383456;32;20085;-59
2022/02/08 08:43:04;;;;;;;6.82;4.35;;;;;;;;;;4395632;32;20496;-60
2022/02/08 08:53:32;;;;;;;8.15;4.75;;;;;;;;;;4395150;32;20089;-60
2022/02/08 08:55:59;;;;;;;6.93;4.45;;;;;;;;;;4393422;32;20158;-60
2022/02/08 08:58:28;;;;;;;7.03;4.43;;;;;;;;;;4380804;32;20158;-59
2022/02/08 09:00:55;;;;;;;7.07;4.22;;;;;;;;;;4381782;32;20078;-59
2022/02/08 09:03:22;;;;;;;7.35;4.57;;;;;;;;;;4405982;32;20090;-60
2022/02/08 09:05:48;;;;;;;4.87;2.85;;;;;;;;;;4406018;32;20069;-60
2022/02/08 09:08:15;;;;;;;6.22;3.78;;;;;;;;;;4407398;32;20096;-61
2022/02/08 09:10:51;;;;;;;6.50;3.55;;;;;;;;;;4380701;32;20608;-59
2022/02/08 09:13:34;;;;;;;;;;;;;;;;;;4405618;32;20601;-61
2022/02/08 09:16:30;;;;;;;6.62;4.37;;;;;;;;;;4395268;32;19956;-59
2022/02/08 09:29:22;;;;;;;7.78;4.65;;;;;;;;;;4394239;32;20089;-60
2022/02/08 09:31:55;;;;;;;;;;;;;;;;;;4394305;32;20173;-60
2022/02/08 09:34:22;;;;;;;6.97;4.37;;;;;;;;;;4405998;32;19969;-62
2022/02/08 09:36:49;;;;;;;6.95;4.78;;;;;;;;;;4392916;32;20066;-59
2022/02/08 09:39:15;;;;;;;8.60;4.47;;;;;;;;;;4380945;32;20089;-60
2022/02/08 09:41:44;;;;;;;7.72;4.37;;;;;;;;;;4392645;32;20089;-60
2022/02/08 09:44:12;;;;;;;6.93;4.10;;;;;;;;;;4379998;32;20553;-60
2022/02/08 09:46:38;;;;;;;6.70;4.20;;;;;;;;;;4380348;32;20154;-59
2022/02/08 09:49:05;;;;;;;7.35;4.40;;;;;;;;;;4392603;32;20081;-60
2022/02/08 09:51:34;;;;;;;7.43;4.50;;;;;;;;;;4393653;32;20069;-59
2022/02/08 09:54:03;;;;;;;8.00;4.35;;;;;;;;;;4380956;32;20093;-59
2022/02/08 09:56:30;;;;;;;8.40;5.15;;;;;;;;;;4393896;32;20163;-60
2022/02/08 09:58:58;;;;;;;9.05;5.20;;;;;;;;;;4381168;32;20085;-59
2022/02/08 10:01:25;;;;;;;7.80;4.62;;;;;;;;;;4380479;32;20082;-60
2022/02/08 10:03:57;;;;;;;7.37;4.68;;;;;;;;;;4392790;32;20077;-60
2022/02/08 10:06:28;;;;;;;8.68;4.65;;;;;;;;;;4380072;32;20156;-59
2022/02/08 10:09:11;;;;;;;7.90;4.95;;;;;;;;;;4392598;32;20073;-59
2022/02/08 10:11:53;;;;;;;9.98;4.93;;;;;;;;;;4407096;32;20084;-59
2022/02/08 10:22:20;;;;;;;8.68;5.03;;;;;;;;;;4392960;32;20085;-60
2022/02/08 10:24:53;;;;;;;8.10;5.00;;;;;;;;;;4392247;32;20071;-59
2022/02/08 10:27:38;;;;;;;8.20;4.85;;;;;;;;;;4392553;32;20149;-59
2022/02/08 10:38:40;;;;;;;7.93;5.43;;;;;;;;;;4405150;32;20148;-60
2022/02/08 10:41:22;;;;;;;10.63;5.50;;;;;;;;;;4392092;32;20077;-60
2022/02/08 10:44:06;;;;;;;7.25;4.50;;;;;;;;;;4379745;32;20085;-60
2022/02/08 10:46:36;;;;;;;7.60;4.80;;;;;;;;;;4379646;32;20082;-59
2022/02/08 10:49:08;;;;;;;7.60;4.78;;;;;;;;;;4404765;32;20089;-59
2022/02/08 10:51:46;;;;;;;7.25;4.40;;;;;;;;;;4404782;32;20077;-59
2022/02/08 10:54:33;;;;;;;8.55;5.35;;;;;;;;;;4393753;32;20142;-59
2022/02/08 10:57:06;;;;;;;8.75;5.10;;;;;;;;;;4381467;32;20178;-60
2022/02/08 10:59:38;;;;;;;9.13;5.85;;;;;;;;;;4392926;32;20085;-60
2022/02/08 11:02:14;;;;;;;9.60;5.65;;;;;;;;;;4379997;32;20165;-59
2022/02/08 11:07:29;;;;;;;8.68;5.80;;;;;;;;;;4404749;32;20598;-59
2022/02/08 11:10:32;;;;;;;9.23;5.60;;;;;;;;;;4394451;32;20073;-59
2022/02/08 11:13:01;;;;;;;10.32;5.62;;;;;;;;;;4405939;32;20085;-59
2022/02/08 11:18:32;;;;;;;8.95;5.43;;;;;;;;;;4392910;32;20172;-60
2022/02/08 11:21:28;;;;;;;10.15;5.80;;;;;;;;;;4381271;32;20073;-60
2022/02/08 11:26:55;;;;;;;10.57;5.70;;;;;;;;;;4404551;32;20138;-59
2022/02/08 11:30:07;;;;;;;8.70;5.10;;;;;;;;;;3857033;37;20054;-59
2022/02/08 11:33:03;;;;;;;10.00;6.47;;;;;;;;;;4394412;32;20252;-59
2022/02/08 11:50:05;;;;;;;;;;;;;;;;;;4418668;32;20080;-61
2022/02/08 12:07:30;;;;;;;10.32;6.50;;;;;;;;;;4418428;32;20073;-59
2022/02/08 12:10:07;;;;;;;10.30;5.95;;;;;;;;;;4392477;32;20085;-59
2022/02/08 12:32:15;;;;;;;9.65;5.47;;;;;;;;;;4417531;32;20096;-60
2022/02/08 12:35:02;;;;;;;9.50;6.00;;;;;;;;;;4417838;32;20083;-61
2022/02/08 12:54:40;;;;;;;8.35;5.70;;;;;;;;;;4407063;32;20093;-59
2022/02/08 13:02:30;;;;;;;8.32;5.85;;;;;;;;;;4394056;32;20104;-60
2022/02/08 13:20:01;;;;;;;8.75;5.62;;;;;;;;;;4394629;32;20077;-59
2022/02/08 14:06:13;;;;;;;8.52;5.25;;;;;;;;;;4406081;32;20444;-60
2022/02/08 14:08:55;;;;;;;7.05;5.00;;;;;;;;;;4405362;32;20557;-60
2022/02/08 14:12:23;;;;;;;7.20;5.25;;;;;;;;;;4382549;32;20074;-60
2022/02/08 14:19:49;;;;;;;7.43;5.30;;;;;;;;;;4407231;32;20067;-60
2022/02/08 14:30:06;;;;;;;7.43;5.25;;;;;;;;;;4395934;32;20168;-60
2022/02/08 14:33:03;;;;;;;7.95;5.28;;;;;;;;;;4406319;32;20077;-60
2022/02/08 15:08:01;;;;;;;8.48;5.35;;;;;;;;;;4405438;32;20182;-59
2022/02/08 15:10:53;;;;;;;8.15;5.82;;;;;;;;;;4394424;32;20125;-60
2022/02/08 15:13:18;;;;;;;8.18;5.50;;;;;;;;;;4405247;32;20160;-61
2022/02/08 15:18:11;;;;;;;8.10;5.53;;;;;;;;;;4393294;32;20145;-60
2022/02/08 15:20:38;;;;;;;8.55;5.60;;;;;;;;;;4407695;32;20114;-60
2022/02/08 15:23:08;;;;;;;8.15;5.07;;;;;;;;;;4409643;32;20091;-60
2022/02/08 15:25:35;;;;;;;8.18;5.85;;;;;;;;;;4394455;32;20126;-60
2022/02/08 15:28:03;;;;;;;7.95;5.62;;;;;;;;;;4392488;32;20164;-60
2022/02/08 15:30:32;;;;;;;9.00;5.85;;;;;;;;;;4405672;32;20077;-59
2022/02/08 15:32:59;;;;;;;9.40;5.50;;;;;;;;;;4379730;32;20077;-60
2022/02/08 15:35:26;;;;;;;8.38;5.15;;;;;;;;;;4392647;32;20073;-59
2022/02/08 15:37:53;;;;;;;7.18;5.22;;;;;;;;;;4393373;32;20072;-59
2022/02/08 15:40:20;;;;;;;8.35;5.22;;;;;;;;;;4391861;32;20552;-61
2022/02/08 15:42:48;;;;;;;8.80;5.53;;;;;;;;;;4405216;32;20114;-60
2022/02/08 15:47:42;;;;;;;7.50;5.22;;;;;;;;;;4393235;32;20089;-60
2022/02/08 15:50:18;;;;;;;7.07;4.93;;;;;;;;;;4380625;32;20070;-60
2022/02/08 15:53:07;;;;;;;7.95;5.25;;;;;;;;;;4393136;32;20152;-60
2022/02/08 15:58:21;;;;;;;9.00;6.15;;;;;;;;;;4404494;32;20532;-60
2022/02/08 16:09:04;;;;;;;7.25;5.22;;;;;;;;;;4404699;32;20460;-60
2022/02/08 16:11:49;;;;;;;8.18;5.50;;;;;;;;;;4393408;32;20080;-60
2022/02/08 16:46:37;;;;;;;9.13;6.40;;;;;;;;;;4395752;32;20094;-61
2022/02/08 16:55:27;;;;;;;;;;;;;;;;;;4383994;32;20499;-60
2022/02/08 16:57:21;;;;;;;10.35;6.65;;;;;;;;;;4394126;32;19972;-59
2022/02/08 16:59:48;;;;;;;9.40;6.57;;;;;;;;;;4408126;32;20061;-60
2022/02/08 17:02:20;;;;;;;10.50;6.62;;;;;;;;;;4408281;32;20511;-61
2022/02/08 17:04:46;;;;;;;10.18;6.25;;;;;;;;;;4406929;32;20078;-61
2022/02/08 17:07:13;;;;;;;11.02;7.20;;;;;;;;;;4381918;32;20495;-60
2022/02/08 17:10:28;;;;;;;10.52;6.82;;;;;;;;;;4381434;32;20099;-59
2022/02/08 17:12:42;;;;;;;10.15;6.55;;;;;;;;;;4406237;32;20511;-59
2022/02/08 17:18:26;;;;;;;9.83;6.50;;;;;;;;;;4395394;32;20440;-60
2022/02/08 17:48:18;;;;;;;8.77;5.28;;;;;;;;;;4395506;32;20077;-61
2022/02/08 17:50:47;;;;;;;8.52;5.75;;;;;;;;;;4407731;32;20089;-60
2022/02/08 17:53:15;;;;;;;7.90;5.53;;;;;;;;;;4393543;32;20111;-60
2022/02/08 17:55:42;;;;;;;8.57;5.85;;;;;;;;;;4393246;32;20077;-61
2022/02/08 17:58:09;;;;;;;9.93;5.90;;;;;;;;;;4407513;32;20174;-61
2022/02/08 18:00:36;;;;;;;8.77;5.60;;;;;;;;;;4393875;32;20113;-60
2022/02/08 18:03:04;;;;;;;9.45;6.20;;;;;;;;;;4393613;32;20081;-60
2022/02/08 18:05:31;;;;;;;9.30;5.75;;;;;;;;;;4381293;32;20156;-60
2022/02/08 18:07:58;;;;;;;8.25;5.85;;;;;;;;;;4407435;32;20164;-60
2022/02/08 18:10:25;;;;;;;8.60;5.90;;;;;;;;;;4393048;32;20073;-59
2022/02/08 18:12:56;;;;;;;9.48;5.37;;;;;;;;;;4393352;32;20089;-61
2022/02/08 18:15:25;;;;;;;7.78;5.15;;;;;;;;;;4393356;32;20084;-60
2022/02/08 18:18:01;;;;;;;8.88;5.82;;;;;;;;;;4405781;32;20143;-60
2022/02/08 18:23:22;;;;;;;8.10;4.82;;;;;;;;;;4405500;32;20069;-61
2022/02/08 19:05:02;;;;;;;8.25;5.93;;;;;;;;;;4407081;32;20149;-60
2022/02/08 19:12:40;;;;;;;9.10;5.60;;;;;;;;;;4392769;32;20623;-59
2022/02/08 19:18:45;;;;;;;9.10;6.40;;;;;;;;;;4394496;32;20085;-60
2022/02/08 19:20:43;;;;;;;;;;;;;;;;;;4397329;32;20158;-60
2022/02/08 19:23:10;;;;;;;8.85;5.78;;;;;;;;;;4405010;32;19992;-60
2022/02/08 19:25:36;;;;;;;9.52;5.70;;;;;;;;;;4392402;32;20070;-60
2022/02/08 19:28:06;;;;;;;8.35;5.07;;;;;;;;;;4391900;32;20530;-60
2022/02/08 19:30:33;;;;;;;9.00;5.72;;;;;;;;;;4404922;32;20070;-60
2022/02/08 19:33:00;;;;;;;7.93;5.87;;;;;;;;;;4406657;32;20088;-60
2022/02/08 19:35:27;;;;;;;8.27;5.50;;;;;;;;;;4393346;32;20070;-60
2022/02/08 19:37:53;;;;;;;9.10;5.85;;;;;;;;;;4407260;32;20500;-61
2022/02/08 19:40:20;;;;;;;8.60;5.70;;;;;;;;;;4393942;32;20081;-60
2022/02/08 19:42:47;;;;;;;9.45;5.87;;;;;;;;;;4392723;32;20082;-60
2022/02/08 19:45:20;;;;;;;9.40;6.03;;;;;;;;;;4404899;32;20500;-60
2022/02/08 19:47:47;;;;;;;9.23;5.90;;;;;;;;;;4404755;32;20072;-59
2022/02/08 19:50:14;;;;;;;8.98;6.22;;;;;;;;;;4380275;32;20516;-62
2022/02/08 19:52:43;;;;;;;8.50;5.62;;;;;;;;;;4407594;32;20057;-60
2022/02/08 19:55:25;;;;;;;7.85;5.40;;;;;;;;;;4395409;32;20074;-59
2022/02/08 19:57:54;;;;;;;8.75;5.82;;;;;;;;;;4397068;32;20061;-60
2022/02/08 20:00:28;;;;;;;9.68;5.70;;;;;;;;;;4395060;32;20068;-60
2022/02/08 20:02:58;;;;;;;10.13;5.95;;;;;;;;;;4395784;32;20077;-60
2022/02/08 20:05:32;;;;;;;9.90;6.03;;;;;;;;;;4395557;32;20531;-61
2022/02/08 20:08:01;;;;;;;9.07;5.75;;;;;;;;;;4395891;32;20085;-60
2022/02/08 20:10:28;;;;;;;7.55;5.07;;;;;;;;;;4395386;32;20077;-59
2022/02/08 20:12:55;;;;;;;8.88;5.55;;;;;;;;;;4395353;32;20065;-60
2022/02/08 20:15:22;;;;;;;9.25;6.00;;;;;;;;;;4407788;32;20238;-59
2022/02/08 20:17:50;;;;;;;10.23;6.20;;;;;;;;;;4394967;32;20532;-60
2022/02/08 20:20:18;;;;;;;8.77;5.35;;;;;;;;;;4407550;32;20158;-60
2022/02/08 20:22:50;;;;;;;9.00;5.95;;;;;;;;;;4407639;32;20085;-60
2022/02/08 20:25:20;;;;;;;10.95;6.35;;;;;;;;;;4395740;32;20105;-61
2022/02/08 20:27:51;;;;;;;9.73;6.22;;;;;;;;;;4394886;32;20073;-60
2022/02/08 20:30:24;;;;;;;10.15;6.12;;;;;;;;;;4382727;32;20149;-60
2022/02/08 20:32:52;;;;;;;10.40;6.22;;;;;;;;;;4382959;32;20094;-60
2022/02/08 20:35:21;;;;;;;11.45;6.47;;;;;;;;;;4394888;32;20089;-61
2022/02/08 20:37:48;;;;;;;9.77;6.10;;;;;;;;;;4394780;32;20100;-61
2022/02/08 20:40:18;;;;;;;10.32;6.32;;;;;;;;;;4381957;32;20089;-60
2022/02/08 20:42:46;;;;;;;10.90;6.85;;;;;;;;;;4407182;32;20184;-61
2022/02/08 20:45:12;;;;;;;10.43;6.70;;;;;;;;;;4394766;32;20101;-60
2022/02/08 20:47:44;;;;;;;10.48;6.15;;;;;;;;;;4406941;32;20076;-60
2022/02/08 20:50:13;;;;;;;12.43;7.22;;;;;;;;;;4382297;32;20081;-60
2022/02/08 20:52:49;;;;;;;9.45;6.30;;;;;;;;;;4394863;32;20081;-60
2022/02/08 20:55:18;;;;;;;10.40;6.57;;;;;;;;;;4395784;32;20085;-61
2022/02/08 20:57:51;;;;;;;11.38;7.18;;;;;;;;;;4394692;32;20123;-60
2022/02/08 21:00:19;;;;;;;11.60;7.50;;;;;;;;;;4382448;32;20100;-59
2022/02/08 21:03:11;;;;;;;11.18;6.25;;;;;;;;;;4394698;32;20149;-61
2022/02/08 21:05:48;;;;;;;10.43;6.30;;;;;;;;;;4384658;32;20076;-60
2022/02/08 21:08:15;;;;;;;10.90;7.03;;;;;;;;;;4406737;32;20499;-60
2022/02/08 21:10:47;;;;;;;10.70;6.45;;;;;;;;;;4406635;32;20061;-60
2022/02/08 21:13:16;;;;;;;11.90;6.82;;;;;;;;;;4408140;32;20078;-60
2022/02/08 21:15:43;;;;;;;11.43;6.62;;;;;;;;;;4381659;32;20077;-60
2022/02/08 21:18:10;;;;;;;11.02;6.53;;;;;;;;;;4393973;32;20516;-60
2022/02/08 21:20:37;;;;;;;10.65;6.78;;;;;;;;;;4394264;32;20165;-61
2022/02/08 21:23:04;;;;;;;10.40;6.45;;;;;;;;;;4394456;32;20093;-60
2022/02/08 21:25:34;;;;;;;9.73;6.57;;;;;;;;;;4406381;32;20166;-59
2022/02/08 21:28:03;;;;;;;11.27;7.22;;;;;;;;;;4393850;32;20173;-60
2022/02/08 21:51:52;;;;;;;11.12;6.78;;;;;;;;;;4393472;32;20078;-60
2022/02/08 21:54:19;;;;;;;11.00;6.78;;;;;;;;;;4407566;32;20090;-61
2022/02/08 21:56:46;;;;;;;11.15;6.72;;;;;;;;;;4406598;32;20622;-60
2022/02/08 21:59:13;;;;;;;12.05;6.87;;;;;;;;;;4405983;32;20073;-60
2022/02/08 22:01:39;;;;;;;12.18;7.05;;;;;;;;;;4393817;32;20077;-59
2022/02/08 22:04:06;;;;;;;10.18;6.70;;;;;;;;;;4380861;32;20077;-60
2022/02/08 22:06:37;;;;;;;12.52;8.82;;;;;;;;;;4393991;32;20068;-60
2022/02/08 22:09:08;;;;;;;10.63;6.75;;;;;;;;;;4405883;32;20098;-61
2022/02/08 22:22:09;;;;;;;12.05;7.80;;;;;;;;;;4393364;32;20077;-59
2022/02/08 22:24:51;;;;;;;12.05;7.85;;;;;;;;;;4381355;32;20471;-60
2022/02/08 22:32:33;;;;;;;12.60;8.15;;;;;;;;;;4406265;32;20088;-60
2022/02/08 22:35:47;;;;;;;12.05;7.70;;;;;;;;;;4405705;32;20440;-60
2022/02/08 22:38:03;;;;;;;12.68;7.87;;;;;;;;;;4401010;32;20173;-60
2022/02/08 22:40:32;;;;;;;12.68;7.28;;;;;;;;;;4406189;32;20088;-60
2022/02/08 22:43:10;;;;;;;12.80;7.85;;;;;;;;;;4406637;32;20496;-60
2022/02/08 22:45:37;;;;;;;12.98;6.87;;;;;;;;;;4405149;32;20085;-60
2022/02/08 22:48:10;;;;;;;11.60;7.55;;;;;;;;;;4405257;32;20073;-59
2022/02/08 22:50:37;;;;;;;12.20;8.02;;;;;;;;;;4392449;32;20483;-60
2022/02/08 22:53:05;;;;;;;14.35;8.10;;;;;;;;;;4380224;32;20083;-60
2022/02/08 22:55:33;;;;;;;14.07;9.68;;;;;;;;;;4393104;32;20068;-60
2022/02/08 22:58:09;;;;;;;11.82;8.48;;;;;;;;;;4392536;32;20177;-60
2022/02/08 23:00:41;;;;;;;12.13;7.68;;;;;;;;;;4381117;32;20496;-60
2022/02/08 23:03:09;;;;;;;11.90;7.60;;;;;;;;;;4392787;32;20092;-59
2022/02/08 23:05:36;;;;;;;12.60;7.25;;;;;;;;;;4392526;32;20065;-61
2022/02/08 23:08:03;;;;;;;13.00;8.00;;;;;;;;;;4405366;32;20093;-59